SE-0030 weather

Finlanda Flygfält
Rossön, Jämtlande län, Sweden

Public forecast

Using degrees Celsius for public forecast. Weather courtesy of forecast.io.

METAR (pilot weather report)

Closest report is Vilhelmina Airport, 42.2 nm (78.2 km) NNE. Retrieved 2019/08/26 05:20 UTC (37 minutes ago):

ESNV 260520Z AUTO 24005KT 210V270 9999 FEW051/// OVC088/// ///// Q1020

TAF (pilot weather forecast)

Forecast is more than 12 hours old.

Closest forecast is Kramfors Sollefteå Airport, 64.7 nm (119.9 km) SE. Retrieved 2015/10/08 12:00 UTC (4 years ago):

TAF ESNK 081130Z 0812/0824 18005KT CAVOK PROB40 0820/0824 4000 BR